Time;durP1;ratioP1;P1;durP2;ratioP2;P2;SDS_P1;SDS_P2;PMS_P1;PMS_P2;Temp;Humidity;BMP_temperature;BMP_pressure;BME280_temperature;BME280_humidity;BME280_pressure;Samples;Min_cycle;Max_cycle;Signal;HPM_P1;HPM_P2
2021/03/12 00:01:51;;;;;;;12.53;2.90;;;6.80;99.90;;;;;;6126962;23;20499;-83
2021/03/12 00:04:17;;;;;;;12.93;5.50;;;6.90;99.90;;;;;;6106495;23;20454;-83
2021/03/12 00:06:45;;;;;;;11.97;2.50;;;6.80;99.90;;;;;;6136009;23;20858;-81
2021/03/12 00:09:11;;;;;;;9.13;2.40;;;6.70;99.90;;;;;;6125696;23;20445;-82
2021/03/12 00:11:37;;;;;;;12.10;3.20;;;6.60;99.90;;;;;;6127423;23;20410;-82
2021/03/12 00:14:04;;;;;;;10.47;2.53;;;6.60;99.90;;;;;;6136435;23;20413;-83
2021/03/12 00:16:30;;;;;;;14.43;3.77;;;6.60;99.90;;;;;;6127124;23;20474;-83
2021/03/12 00:18:56;;;;;;;13.03;3.50;;;6.60;99.90;;;;;;6126740;23;20424;-82
2021/03/12 00:21:24;;;;;;;16.47;2.70;;;6.60;99.90;;;;;;6136178;23;20439;-82
2021/03/12 00:23:51;;;;;;;13.97;3.07;;;6.50;99.90;;;;;;6124966;23;20485;-82
2021/03/12 00:26:18;;;;;;;15.93;3.00;;;6.50;99.90;;;;;;6126892;23;20403;-82
2021/03/12 00:28:44;;;;;;;12.83;3.30;;;6.50;99.90;;;;;;6126821;23;20489;-82
2021/03/12 00:31:11;;;;;;;13.50;3.77;;;6.60;99.90;;;;;;6126574;23;20918;-82
2021/03/12 00:33:37;;;;;;;9.10;2.30;;;6.50;99.90;;;;;;6136596;23;20414;-82
2021/03/12 00:36:05;;;;;;;17.60;2.73;;;6.50;99.90;;;;;;6136192;23;20431;-83
2021/03/12 00:38:31;;;;;;;10.37;2.93;;;6.70;99.90;;;;;;6125408;23;20410;-82
2021/03/12 00:41:00;;;;;;;9.87;2.57;;;6.60;99.90;;;;;;6136219;23;20447;-82
2021/03/12 00:43:27;;;;;;;13.10;3.80;;;6.60;99.90;;;;;;6126337;23;20950;-82
2021/03/12 00:45:55;;;;;;;13.23;3.77;;;6.60;99.90;;;;;;6136397;23;20566;-82
2021/03/12 00:48:22;;;;;;;11.47;3.40;;;6.50;99.90;;;;;;6126516;23;20414;-82
2021/03/12 00:50:49;;;;;;;10.60;2.90;;;6.40;99.90;;;;;;6136189;23;20415;-82
2021/03/12 00:53:16;;;;;;;13.37;3.50;;;6.40;99.90;;;;;;6125041;23;20823;-82
2021/03/12 00:55:42;;;;;;;12.50;3.80;;;6.20;99.90;;;;;;6136036;23;20489;-82
2021/03/12 00:58:10;;;;;;;9.73;2.80;;;6.20;99.90;;;;;;6126269;23;20403;-82
2021/03/12 01:00:38;;;;;;;10.63;4.30;;;6.20;99.90;;;;;;6137748;23;20828;-81
2021/03/12 01:03:04;;;;;;;11.60;3.40;;;6.10;99.90;;;;;;6126820;23;20403;-83
2021/03/12 01:05:31;;;;;;;16.27;4.00;;;6.20;99.90;;;;;;6126164;23;20965;-82
2021/03/12 01:07:58;;;;;;;14.33;4.40;;;6.20;99.90;;;;;;6125058;23;20721;-82
2021/03/12 01:10:25;;;;;;;12.13;2.80;;;6.30;99.90;;;;;;6099245;23;21058;-81
2021/03/12 01:12:53;;;;;;;11.27;3.20;;;6.30;99.90;;;;;;6127663;23;20406;-81
2021/03/12 01:15:23;;;;;;;17.97;3.13;;;6.30;99.90;;;;;;6135977;23;20441;-81
2021/03/12 01:17:49;;;;;;;12.30;3.63;;;6.30;99.90;;;;;;6126429;23;20408;-81
2021/03/12 01:20:18;;;;;;;11.10;3.20;;;6.40;99.90;;;;;;6125880;23;20431;-81
2021/03/12 01:22:45;;;;;;;16.70;3.43;;;6.40;99.90;;;;;;6124764;23;20966;-82
2021/03/12 01:25:14;;;;;;;11.83;2.67;;;6.40;99.90;;;;;;6126520;23;20462;-82
2021/03/12 01:27:40;;;;;;;9.50;2.30;;;6.60;99.90;;;;;;6135829;23;20773;-82
2021/03/12 01:30:10;;;;;;;18.33;2.60;;;6.40;99.90;;;;;;6125851;23;20399;-82
2021/03/12 01:32:38;;;;;;;15.13;3.50;;;6.50;99.90;;;;;;6126401;23;20403;-82
2021/03/12 01:35:05;;;;;;;13.33;2.77;;;6.50;99.90;;;;;;6126358;23;20430;-81
2021/03/12 01:37:32;;;;;;;14.23;3.60;;;6.60;99.90;;;;;;6099149;23;20461;-81
2021/03/12 01:39:58;;;;;;;11.53;3.00;;;6.40;99.90;;;;;;6126247;23;20486;-81
2021/03/12 01:42:27;;;;;;;14.47;2.90;;;6.30;99.90;;;;;;6126257;23;20431;-81
2021/03/12 01:44:53;;;;;;;13.97;2.97;;;6.40;99.90;;;;;;6135795;23;20407;-81
2021/03/12 01:47:20;;;;;;;15.73;3.60;;;6.40;99.90;;;;;;6125957;23;20414;-81
2021/03/12 01:52:22;;;;;;;14.47;3.37;;;6.30;99.90;;;;;;6109233;23;20446;-83
2021/03/12 01:54:51;;;;;;;9.90;2.40;;;6.50;99.90;;;;;;6126298;23;20399;-83
2021/03/12 01:57:17;;;;;;;15.73;2.80;;;6.40;99.90;;;;;;6126149;23;20407;-83
2021/03/12 01:59:44;;;;;;;12.37;3.20;;;6.40;99.90;;;;;;6135849;23;20414;-83
2021/03/12 02:02:11;;;;;;;12.90;3.40;;;6.40;99.90;;;;;;6126253;23;20494;-82
2021/03/12 02:04:37;;;;;;;11.33;3.13;;;6.40;99.90;;;;;;6126721;23;20410;-82
2021/03/12 02:07:04;;;;;;;14.33;3.67;;;6.40;99.90;;;;;;6126676;23;20852;-83
2021/03/12 02:09:31;;;;;;;13.37;2.93;;;6.40;99.90;;;;;;6128113;23;20446;-82
2021/03/12 02:12:04;;;;;;;17.57;3.70;;;6.40;99.90;;;;;;6127927;23;20414;-83
2021/03/12 02:14:40;;;;;;;16.10;3.63;;;6.30;99.90;;;;;;6127735;23;20403;-83
2021/03/12 02:17:13;;;;;;;12.20;4.40;;;6.30;99.90;;;;;;6127652;23;20412;-83
2021/03/12 02:20:01;;;;;;;14.97;3.80;;;6.20;99.90;;;;;;6128099;23;20434;-82
2021/03/12 02:22:31;;;;;;;20.83;3.70;;;6.40;99.90;;;;;;6136371;23;20411;-83
2021/03/12 02:25:05;;;;;;;13.13;3.10;;;6.30;99.90;;;;;;6127680;23;20454;-83
2021/03/12 02:27:34;;;;;;;19.50;3.53;;;6.50;99.90;;;;;;6127711;23;20422;-83
2021/03/12 02:30:01;;;;;;;15.63;4.67;;;6.50;99.90;;;;;;6128009;23;20499;-83
2021/03/12 02:32:32;;;;;;;17.93;6.40;;;6.50;99.90;;;;;;6127949;23;20741;-83
2021/03/12 02:35:03;;;;;;;17.40;4.03;;;6.40;99.90;;;;;;6127459;23;20446;-83
2021/03/12 02:37:30;;;;;;;17.13;5.00;;;6.40;99.90;;;;;;6135712;23;20745;-84
2021/03/12 02:40:00;;;;;;;18.03;4.40;;;6.40;99.90;;;;;;6137147;23;20418;-82
2021/03/12 02:42:27;;;;;;;23.33;4.47;;;6.40;99.90;;;;;;6127836;23;20447;-83
2021/03/12 02:44:59;;;;;;;17.50;4.73;;;6.30;99.90;;;;;;6137548;23;20442;-83
2021/03/12 02:47:28;;;;;;;18.33;5.27;;;6.40;99.90;;;;;;6137135;23;20501;-83
2021/03/12 02:49:55;;;;;;;14.13;3.70;;;6.40;99.90;;;;;;6127343;23;20879;-83
2021/03/12 02:52:22;;;;;;;15.97;4.83;;;6.50;99.90;;;;;;6126061;23;20442;-83
2021/03/12 02:54:49;;;;;;;14.83;4.93;;;6.50;99.90;;;;;;6127680;23;20399;-83
2021/03/12 02:57:19;;;;;;;21.77;3.57;;;6.50;99.90;;;;;;6127836;23;20403;-83
2021/03/12 02:59:46;;;;;;;15.90;3.90;;;6.60;99.90;;;;;;6127616;23;20407;-83
2021/03/12 03:02:16;;;;;;;15.57;3.87;;;6.50;99.90;;;;;;6127562;23;20758;-83
2021/03/12 03:04:44;;;;;;;18.50;4.80;;;6.60;99.90;;;;;;6137507;23;20434;-83
2021/03/12 03:07:13;;;;;;;13.73;3.20;;;6.50;99.90;;;;;;6135495;23;20442;-83
2021/03/12 03:09:40;;;;;;;14.90;3.80;;;6.50;99.90;;;;;;6127612;23;20422;-83
2021/03/12 03:12:09;;;;;;;29.57;5.10;;;6.50;99.90;;;;;;6127470;23;20883;-83
2021/03/12 03:14:36;;;;;;;16.03;3.90;;;6.40;99.90;;;;;;6127173;23;20887;-83
2021/03/12 03:17:06;;;;;;;14.17;3.60;;;6.50;99.90;;;;;;6127056;23;20414;-83
2021/03/12 03:19:36;;;;;;;17.13;3.70;;;6.50;99.90;;;;;;6137313;23;20466;-83
2021/03/12 03:22:04;;;;;;;21.70;4.10;;;6.60;99.90;;;;;;6125823;23;20434;-83
2021/03/12 03:24:31;;;;;;;17.73;3.67;;;6.50;99.90;;;;;;6127515;23;20407;-83
2021/03/12 03:26:59;;;;;;;15.40;4.07;;;6.60;99.90;;;;;;6127218;23;20775;-83
2021/03/12 03:29:28;;;;;;;14.37;3.97;;;6.50;99.90;;;;;;6137215;23;20407;-84
2021/03/12 03:31:55;;;;;;;16.63;3.77;;;6.60;99.90;;;;;;6127567;23;20411;-83
2021/03/12 03:34:21;;;;;;;17.17;2.80;;;6.60;99.90;;;;;;6136626;23;20746;-83
2021/03/12 03:36:49;;;;;;;14.27;3.60;;;6.60;99.90;;;;;;6136033;23;20683;-83
2021/03/12 03:39:16;;;;;;;24.90;3.20;;;6.60;99.90;;;;;;6126963;23;20439;-83
2021/03/12 03:41:45;;;;;;;18.67;3.47;;;6.60;99.90;;;;;;6127052;23;20451;-83
2021/03/12 03:44:14;;;;;;;10.47;3.43;;;6.60;99.90;;;;;;6127211;23;20422;-84
2021/03/12 03:46:45;;;;;;;12.20;3.40;;;6.60;99.90;;;;;;6127220;23;20462;-84
2021/03/12 03:49:15;;;;;;;17.40;3.07;;;6.60;99.90;;;;;;6137040;23;20485;-84
2021/03/12 03:51:43;;;;;;;15.23;2.57;;;6.50;99.90;;;;;;6126783;23;20475;-83
2021/03/12 03:54:12;;;;;;;15.20;3.80;;;6.60;99.90;;;;;;6125513;23;20403;-83
2021/03/12 03:56:42;;;;;;;13.77;3.57;;;6.50;99.90;;;;;;6136697;23;20895;-83
2021/03/12 03:59:09;;;;;;;17.17;2.97;;;6.50;99.90;;;;;;6126805;23;20473;-83
2021/03/12 04:01:37;;;;;;;13.13;3.03;;;6.50;99.90;;;;;;6127198;23;20439;-83
2021/03/12 04:04:04;;;;;;;13.57;3.20;;;6.50;99.90;;;;;;6126751;23;20404;-83
2021/03/12 04:06:32;;;;;;;12.30;2.83;;;6.50;99.90;;;;;;6126959;23;20443;-83
2021/03/12 04:09:00;;;;;;;15.13;4.10;;;6.40;99.90;;;;;;6125528;23;20427;-83
2021/03/12 04:11:28;;;;;;;18.73;3.13;;;6.40;99.90;;;;;;6127104;23;20406;-83
2021/03/12 04:13:58;;;;;;;17.20;3.40;;;6.40;99.90;;;;;;6126965;23;20399;-83
2021/03/12 04:16:26;;;;;;;14.63;3.70;;;6.40;99.90;;;;;;6127004;23;20399;-82
2021/03/12 04:18:52;;;;;;;16.60;3.60;;;6.40;99.90;;;;;;6126521;23;20426;-82
2021/03/12 04:21:21;;;;;;;13.23;3.70;;;6.30;99.90;;;;;;6136315;23;20441;-83
2021/03/12 04:23:48;;;;;;;18.50;3.63;;;6.30;99.90;;;;;;6125027;23;20435;-83
2021/03/12 04:26:15;;;;;;;16.10;3.60;;;6.30;99.90;;;;;;6126517;23;20871;-83
2021/03/12 04:28:42;;;;;;;19.23;5.03;;;6.40;99.90;;;;;;6126161;23;20909;-83
2021/03/12 04:31:09;;;;;;;24.20;3.97;;;6.30;99.90;;;;;;6126875;23;20447;-82
2021/03/12 04:33:36;;;;;;;15.80;3.67;;;6.20;99.90;;;;;;6136173;23;20446;-83
2021/03/12 04:36:04;;;;;;;18.03;3.83;;;6.20;99.90;;;;;;6136616;23;20938;-83
2021/03/12 04:38:31;;;;;;;17.03;4.00;;;6.00;99.90;;;;;;6125285;23;20407;-83
2021/03/12 04:41:00;;;;;;;14.80;3.20;;;5.90;99.90;;;;;;6126602;23;20478;-82
2021/03/12 04:43:26;;;;;;;26.03;5.70;;;5.80;99.90;;;;;;6126802;23;20829;-82
2021/03/12 04:45:54;;;;;;;13.13;3.43;;;5.90;99.90;;;;;;6136058;23;20407;-83
2021/03/12 04:48:21;;;;;;;14.37;3.60;;;5.80;99.90;;;;;;6136006;23;20403;-84
2021/03/12 04:50:48;;;;;;;17.00;4.17;;;5.90;99.90;;;;;;6126174;23;20927;-83
2021/03/12 04:53:18;;;;;;;23.10;4.77;;;6.20;99.90;;;;;;6124746;23;20442;-83
2021/03/12 04:55:45;;;;;;;21.83;3.43;;;6.20;99.90;;;;;;6136362;23;20415;-84
2021/03/12 04:58:12;;;;;;;25.37;4.03;;;6.30;99.90;;;;;;6126626;23;20458;-83
2021/03/12 05:00:39;;;;;;;28.90;4.47;;;6.20;99.90;;;;;;6126294;23;20435;-83
2021/03/12 05:03:07;;;;;;;13.50;3.27;;;6.20;99.90;;;;;;6126773;23;20525;-83
2021/03/12 05:05:35;;;;;;;15.50;4.10;;;6.00;99.90;;;;;;6126202;23;20399;-83
2021/03/12 05:08:01;;;;;;;24.57;4.23;;;6.00;99.90;;;;;;6125209;23;20406;-83
2021/03/12 05:10:28;;;;;;;18.70;3.20;;;6.10;99.90;;;;;;6126422;23;20403;-83
2021/03/12 05:12:56;;;;;;;19.07;3.90;;;6.20;99.90;;;;;;6126959;23;20508;-83
2021/03/12 05:15:23;;;;;;;19.77;4.80;;;6.20;99.90;;;;;;6126608;23;20399;-83
2021/03/12 05:17:49;;;;;;;20.43;4.40;;;6.40;99.90;;;;;;6136421;23;20410;-82
2021/03/12 05:20:17;;;;;;;18.63;3.80;;;6.30;99.90;;;;;;6126295;23;20478;-83
2021/03/12 05:22:43;;;;;;;20.73;3.70;;;6.20;99.90;;;;;;6125190;23;20403;-83
2021/03/12 05:25:10;;;;;;;17.40;3.90;;;6.00;99.90;;;;;;6136188;23;20466;-82
2021/03/12 05:27:36;;;;;;;20.40;3.93;;;6.20;99.90;;;;;;6126087;23;20405;-83
2021/03/12 05:30:04;;;;;;;15.17;3.87;;;6.10;99.90;;;;;;6126027;23;20453;-83
2021/03/12 05:32:30;;;;;;;27.63;4.67;;;5.90;99.90;;;;;;6126431;23;20403;-83
2021/03/12 05:34:56;;;;;;;24.33;3.77;;;5.90;99.90;;;;;;6126008;23;20403;-82
2021/03/12 05:37:24;;;;;;;18.83;3.97;;;5.90;99.90;;;;;;6134274;23;20451;-83
2021/03/12 05:39:50;;;;;;;20.93;5.17;;;5.70;99.90;;;;;;6126798;23;20903;-82
2021/03/12 05:42:17;;;;;;;17.90;4.30;;;5.70;99.90;;;;;;6128264;23;20450;-82
2021/03/12 05:44:46;;;;;;;14.20;2.80;;;5.80;99.90;;;;;;6137968;23;20414;-83
2021/03/12 05:47:12;;;;;;;18.33;3.80;;;5.90;99.90;;;;;;6128369;23;20439;-82
2021/03/12 05:49:40;;;;;;;22.73;3.30;;;5.90;99.90;;;;;;6138153;23;20719;-83
2021/03/12 05:52:10;;;;;;;13.17;2.63;;;6.00;99.90;;;;;;6126246;23;20472;-83
2021/03/12 05:54:37;;;;;;;17.53;3.07;;;6.10;99.90;;;;;;6128348;23;20446;-83
2021/03/12 05:57:04;;;;;;;18.30;3.20;;;6.30;99.90;;;;;;6128180;23;20723;-82
2021/03/12 05:59:33;;;;;;;15.40;3.57;;;6.10;99.90;;;;;;6137689;23;20407;-83
2021/03/12 06:01:59;;;;;;;22.57;4.93;;;6.20;99.90;;;;;;6128116;23;20442;-83
2021/03/12 06:04:26;;;;;;;13.47;3.13;;;6.00;99.90;;;;;;6137977;23;20411;-83
2021/03/12 06:06:52;;;;;;;15.03;3.40;;;5.90;99.90;;;;;;6126990;23;20462;-82
2021/03/12 06:09:18;;;;;;;20.90;4.37;;;5.80;99.90;;;;;;6128027;23;20411;-82
2021/03/12 06:11:46;;;;;;;15.60;3.83;;;5.90;99.90;;;;;;6127666;23;20490;-82
2021/03/12 06:14:12;;;;;;;15.70;3.63;;;5.80;99.90;;;;;;6128157;23;20490;-83
2021/03/12 06:16:47;;;;;;;18.03;5.60;;;5.80;99.90;;;;;;6137536;23;20905;-83
2021/03/12 06:19:15;;;;;;;17.80;3.90;;;5.90;99.90;;;;;;6137681;23;20727;-82
2021/03/12 06:21:43;;;;;;;15.53;4.30;;;5.80;99.90;;;;;;6127988;23;20486;-83
2021/03/12 06:24:26;;;;;;;11.93;3.27;;;5.90;99.90;;;;;;6126381;23;20777;-83
2021/03/12 06:26:54;;;;;;;18.30;4.17;;;6.00;99.90;;;;;;6127923;23;20721;-83
2021/03/12 06:29:35;;;;;;;20.23;3.77;;;6.00;99.90;;;;;;6127918;23;20467;-83
2021/03/12 06:32:03;;;;;;;20.33;5.00;;;6.00;99.90;;;;;;6127914;23;20729;-83
2021/03/12 06:34:32;;;;;;;20.50;5.30;;;6.00;99.90;;;;;;6127938;23;20410;-83
2021/03/12 06:36:59;;;;;;;13.87;3.70;;;6.00;99.90;;;;;;6125979;23;20949;-81
2021/03/12 06:40:14;;;;;;;16.07;4.10;;;6.10;99.90;;;;;;6127656;23;20403;-83
2021/03/12 06:43:05;;;;;;;18.20;5.70;;;6.10;99.90;;;;;;6085586;23;20414;-83
2021/03/12 06:45:53;;;;;;;21.70;5.70;;;6.10;99.90;;;;;;6127802;23;20395;-83
2021/03/12 06:48:40;;;;;;;;;;;;;;;;;;;;;
2021/03/12 06:51:14;;;;;;;14.30;4.27;;;6.20;99.90;;;;;;6126796;23;20509;-84
2021/03/12 06:53:54;;;;;;;16.60;4.20;;;6.10;99.90;;;;;;6136040;23;20473;-84
2021/03/12 06:56:32;;;;;;;17.57;4.20;;;6.20;99.90;;;;;;6127319;23;20453;-83
2021/03/12 06:59:04;;;;;;;17.07;3.07;;;6.30;99.90;;;;;;6137075;23;20406;-84
2021/03/12 07:01:30;;;;;;;18.07;5.40;;;6.40;99.90;;;;;;6127298;23;20449;-83
2021/03/12 07:04:34;;;;;;;21.90;6.80;;;6.40;99.90;;;;;;6137158;23;20407;-83
2021/03/12 07:07:08;;;;;;;21.53;5.50;;;6.50;99.90;;;;;;6008058;23;20467;-83
2021/03/12 07:09:36;;;;;;;18.57;5.03;;;6.60;99.90;;;;;;6100083;23;20897;-83
2021/03/12 07:12:08;;;;;;;27.70;4.33;;;6.80;99.90;;;;;;6127640;23;20465;-83
2021/03/12 07:14:38;;;;;;;20.33;5.20;;;6.70;99.90;;;;;;6127180;23;20407;-83
2021/03/12 07:20:33;;;;;;;18.07;4.97;;;6.90;99.90;;;;;;5956386;24;20419;-84
2021/03/12 07:23:03;;;;;;;16.30;3.93;;;6.90;99.90;;;;;;6097974;23;20434;-83
2021/03/12 07:25:45;;;;;;;22.97;4.10;;;7.10;99.90;;;;;;6137329;23;20441;-84
2021/03/12 07:29:01;;;;;;;18.97;4.40;;;7.10;99.90;;;;;;6136865;23;20429;-83
2021/03/12 07:31:39;;;;;;;23.73;5.13;;;7.20;99.90;;;;;;6137272;23;20458;-83
2021/03/12 07:34:38;;;;;;;24.03;5.80;;;7.30;99.90;;;;;;6127347;23;20433;-83
2021/03/12 07:37:12;;;;;;;14.73;3.77;;;7.40;99.90;;;;;;6135845;23;20442;-83
2021/03/12 07:39:42;;;;;;;15.20;3.90;;;7.50;99.90;;;;;;6127239;23;20470;-83
2021/03/12 07:42:30;;;;;;;21.70;3.80;;;7.60;99.90;;;;;;6136619;23;21042;-83
2021/03/12 07:45:05;;;;;;;24.23;4.67;;;7.70;99.90;;;;;;6126922;23;20907;-83
2021/03/12 07:47:43;;;;;;;46.13;6.73;;;7.80;99.90;;;;;;6136510;23;20409;-83
2021/03/12 07:50:28;;;;;;;17.13;3.33;;;8.00;99.90;;;;;;6137118;23;20414;-83
2021/03/12 07:53:05;;;;;;;;;;;;;;;;;;;;;
2021/03/12 07:56:04;;;;;;;20.40;5.03;;;8.20;99.90;;;;;;6096868;23;20418;-84
2021/03/12 07:58:53;;;;;;;20.43;5.63;;;8.30;95.80;;;;;;6097301;23;20403;-83
2021/03/12 08:01:21;;;;;;;21.93;4.07;;;8.30;96.70;;;;;;6097610;23;20491;-84
2021/03/12 08:03:51;;;;;;;14.40;3.33;;;8.30;93.00;;;;;;6097560;23;20491;-84
2021/03/12 08:06:34;;;;;;;20.77;3.80;;;8.50;94.50;;;;;;6097330;23;20892;-84
2021/03/12 08:09:05;;;;;;;15.23;3.87;;;8.60;91.50;;;;;;6096365;23;20404;-84
2021/03/12 08:11:33;;;;;;;19.93;3.60;;;8.50;90.80;;;;;;6098515;23;20407;-83
2021/03/12 08:14:23;;;;;;;24.87;4.53;;;8.40;90.10;;;;;;6097697;23;20404;-84
2021/03/12 08:17:15;;;;;;;35.80;4.00;;;8.40;90.30;;;;;;6092261;23;20455;-83
2021/03/12 08:19:47;;;;;;;23.53;4.37;;;8.30;90.80;;;;;;6097635;23;20400;-76
2021/03/12 08:22:47;;;;;;;26.00;4.87;;;8.30;93.70;;;;;;6095772;23;20436;-84
2021/03/12 08:25:45;;;;;;;23.77;4.00;;;8.50;92.00;;;;;;5985664;24;20414;-84
2021/03/12 08:28:30;;;;;;;17.03;3.57;;;8.50;92.40;;;;;;6094848;23;20482;-84
2021/03/12 08:31:00;;;;;;;26.53;4.90;;;8.60;93.50;;;;;;6095390;23;20411;-84
2021/03/12 08:34:06;;;;;;;;;;;;;;;;;;;;;
2021/03/12 08:36:50;;;;;;;16.00;3.60;;;8.80;90.90;;;;;;6105319;23;20412;-84
2021/03/12 08:39:37;;;;;;;28.83;6.77;;;8.80;91.10;;;;;;6093646;23;21014;-84
2021/03/12 08:42:06;;;;;;;19.10;3.80;;;8.80;85.60;;;;;;6105256;23;20435;-84
2021/03/12 08:44:44;;;;;;;24.80;4.70;;;9.10;86.00;;;;;;6105331;23;20415;-84
2021/03/12 08:47:31;;;;;;;20.53;4.00;;;9.40;87.60;;;;;;6095041;23;20455;-84
2021/03/12 08:49:59;;;;;;;23.43;6.00;;;9.50;76.70;;;;;;6104802;23;20411;-85
2021/03/12 08:52:45;;;;;;;18.60;4.40;;;9.50;75.60;;;;;;6117372;23;20473;-84
2021/03/12 08:55:34;;;;;;;17.83;3.97;;;9.40;78.80;;;;;;6124767;23;20477;-84
2021/03/12 08:58:22;;;;;;;21.27;3.40;;;9.40;75.90;;;;;;6124801;23;20399;-84
2021/03/12 09:00:57;;;;;;;20.67;3.67;;;9.30;78.60;;;;;;6087669;23;20443;-84
2021/03/12 09:03:26;;;;;;;23.13;3.90;;;9.10;76.50;;;;;;6079780;23;20446;-84
2021/03/12 09:05:54;;;;;;;26.57;5.20;;;9.10;77.90;;;;;;6081611;23;20914;-84
2021/03/12 09:08:31;;;;;;;22.40;4.57;;;9.20;82.70;;;;;;6074450;23;20477;-84
2021/03/12 09:11:00;;;;;;;19.80;3.40;;;9.20;78.30;;;;;;6077765;23;20447;-84
2021/03/12 09:13:51;;;;;;;20.83;5.00;;;9.20;80.80;;;;;;6067798;23;20460;-83
2021/03/12 09:16:20;;;;;;;21.30;3.10;;;9.30;77.40;;;;;;6077514;23;20415;-84
2021/03/12 09:18:47;;;;;;;17.80;4.03;;;9.30;82.20;;;;;;6068306;23;20400;-84
2021/03/12 09:21:17;;;;;;;21.57;3.70;;;9.60;81.00;;;;;;6067980;23;20976;-84
2021/03/12 09:23:49;;;;;;;20.13;3.77;;;9.70;70.90;;;;;;6066129;23;20881;-84
2021/03/12 09:26:17;;;;;;;38.97;4.53;;;9.50;63.50;;;;;;6068265;23;20472;-84
2021/03/12 09:28:46;;;;;;;19.43;3.77;;;9.60;58.90;;;;;;6068252;23;20401;-84
2021/03/12 09:31:15;;;;;;;20.33;4.30;;;10.10;50.80;;;;;;6077994;23;20416;-84
2021/03/12 09:33:43;;;;;;;21.40;3.40;;;10.30;51.10;;;;;;6067922;23;20406;-84
2021/03/12 09:36:29;;;;;;;31.10;4.63;;;10.40;43.60;;;;;;6068228;23;20434;-84
2021/03/12 09:39:05;;;;;;;22.53;3.40;;;10.60;38.10;;;;;;6066471;23;20432;-84
2021/03/12 09:41:32;;;;;;;19.93;4.13;;;10.70;37.20;;;;;;6077206;23;20429;-84
2021/03/12 09:44:04;;;;;;;13.53;3.60;;;10.80;30.60;;;;;;6068333;23;20416;-84
2021/03/12 09:46:32;;;;;;;29.93;5.70;;;10.90;30.20;;;;;;6067930;23;20912;-84
2021/03/12 09:49:01;;;;;;;22.20;4.90;;;11.20;29.90;;;;;;6068304;23;20409;-84
2021/03/12 09:51:31;;;;;;;21.10;3.93;;;11.60;27.60;;;;;;6089597;23;20439;-84
2021/03/12 09:54:03;;;;;;;19.83;4.73;;;11.50;23.90;;;;;;6104925;23;20415;-84
2021/03/12 09:56:31;;;;;;;23.70;3.90;;;11.20;20.30;;;;;;6106854;23;20440;-84
2021/03/12 09:59:00;;;;;;;19.97;3.20;;;11.40;20.80;;;;;;6107046;23;20439;-84
2021/03/12 10:01:26;;;;;;;19.00;4.40;;;11.30;18.50;;;;;;6096772;23;20440;-84
2021/03/12 10:03:53;;;;;;;21.83;2.87;;;11.50;20.80;;;;;;6097205;23;20450;-84
2021/03/12 10:06:19;;;;;;;28.40;3.43;;;11.50;18.70;;;;;;6097102;23;20451;-84
2021/03/12 10:09:06;;;;;;;23.60;3.10;;;11.30;16.70;;;;;;6095616;23;20408;-84
2021/03/12 10:11:43;;;;;;;18.30;2.43;;;11.20;18.70;;;;;;6097143;23;20479;-84
2021/03/12 10:14:31;;;;;;;24.57;3.40;;;11.30;14.20;;;;;;6106416;23;20433;-85
2021/03/12 10:17:16;;;;;;;16.40;2.80;;;11.30;16.20;;;;;;6097159;23;20399;-84
2021/03/12 10:19:51;;;;;;;22.87;4.10;;;11.80;16.10;;;;;;6106453;23;20444;-84
2021/03/12 10:22:23;;;;;;;21.03;3.00;;;11.90;14.50;;;;;;6095538;23;20745;-84
2021/03/12 10:25:06;;;;;;;22.53;3.50;;;12.30;12.00;;;;;;6096773;23;20487;-84
2021/03/12 10:27:34;;;;;;;29.37;3.33;;;12.60;10.50;;;;;;6098831;23;20399;-84
2021/03/12 10:30:11;;;;;;;20.47;3.10;;;12.80;8.30;;;;;;6098817;23;20483;-84
2021/03/12 10:32:40;;;;;;;18.87;3.77;;;13.30;7.40;;;;;;6098263;23;20421;-84
2021/03/12 10:35:22;;;;;;;22.20;3.07;;;12.80;6.60;;;;;;6098739;23;20404;-84
2021/03/12 10:37:49;;;;;;;18.53;3.10;;;12.40;4.50;;;;;;6106597;23;20474;-83
2021/03/12 10:40:18;;;;;;;20.30;3.17;;;12.00;5.90;;;;;;6108047;23;20427;-84
2021/03/12 10:42:46;;;;;;;18.27;4.07;;;11.60;6.20;;;;;;6098585;23;20435;-84
2021/03/12 10:45:24;;;;;;;16.10;2.70;;;11.80;6.40;;;;;;6098510;23;20491;-84
2021/03/12 10:48:00;;;;;;;27.27;3.43;;;11.40;6.60;;;;;;6098648;23;20400;-83
2021/03/12 10:50:28;;;;;;;20.70;3.67;;;11.30;11.50;;;;;;6098130;23;20395;-84
2021/03/12 10:53:12;;;;;;;22.90;3.57;;;10.90;13.20;;;;;;6096499;23;20491;-84
2021/03/12 10:55:43;;;;;;;18.43;3.70;;;10.80;13.10;;;;;;6098378;23;20404;-83
2021/03/12 10:58:25;;;;;;;24.70;4.10;;;10.80;14.30;;;;;;6098037;23;20491;-84
2021/03/12 11:01:11;;;;;;;20.27;4.40;;;11.10;13.30;;;;;;6098290;23;20411;-84
2021/03/12 11:03:38;;;;;;;19.73;3.90;;;11.10;14.70;;;;;;6108242;23;20408;-84
2021/03/12 11:06:10;;;;;;;19.53;3.50;;;11.10;11.90;;;;;;6098306;23;20400;-84
2021/03/12 11:08:37;;;;;;;18.70;3.60;;;11.10;13.90;;;;;;6096782;23;20408;-84
2021/03/12 11:11:07;;;;;;;26.30;3.93;;;11.10;14.00;;;;;;6098382;23;20404;-84
2021/03/12 11:13:34;;;;;;;14.53;2.70;;;11.10;12.90;;;;;;6108079;23;20411;-84
2021/03/12 11:16:01;;;;;;;16.97;2.80;;;11.20;11.80;;;;;;6097902;23;20400;-84
2021/03/12 11:18:30;;;;;;;18.80;2.93;;;11.30;10.80;;;;;;6097729;23;20432;-84
2021/03/12 11:20:57;;;;;;;16.10;2.50;;;11.30;8.80;;;;;;6098248;23;20480;-83
2021/03/12 11:23:23;;;;;;;18.00;2.70;;;11.40;10.10;;;;;;6096304;23;20463;-83
2021/03/12 11:25:50;;;;;;;22.73;3.80;;;11.30;8.90;;;;;;6108025;23;20408;-84
2021/03/12 11:28:17;;;;;;;23.20;4.20;;;11.10;9.40;;;;;;6097804;23;20456;-84
2021/03/12 11:30:43;;;;;;;22.47;3.40;;;11.10;10.10;;;;;;6098214;23;20411;-83
2021/03/12 11:33:10;;;;;;;16.47;3.67;;;11.00;10.00;;;;;;6097960;23;20411;-84
2021/03/12 11:35:38;;;;;;;14.60;2.60;;;10.90;10.10;;;;;;6098086;23;20491;-84
2021/03/12 11:38:05;;;;;;;15.80;4.03;;;10.90;10.60;;;;;;6096072;23;20740;-83
2021/03/12 11:40:32;;;;;;;25.87;4.97;;;10.90;11.40;;;;;;6098161;23;20486;-84
2021/03/12 11:42:58;;;;;;;18.70;3.70;;;11.00;8.70;;;;;;6106921;23;20554;-85
2021/03/12 11:45:31;;;;;;;21.33;3.93;;;11.10;11.20;;;;;;6108899;23;20412;-84
2021/03/12 11:47:58;;;;;;;20.73;3.30;;;11.10;8.00;;;;;;6109231;23;20883;-84
2021/03/12 11:50:49;;;;;;;19.23;3.27;;;11.00;9.40;;;;;;6107890;23;20440;-84
2021/03/12 11:53:21;;;;;;;18.17;3.00;;;11.30;9.70;;;;;;6103607;23;20487;-84
2021/03/12 11:55:48;;;;;;;19.90;4.27;;;11.40;9.00;;;;;;6097887;23;20404;-85
2021/03/12 11:58:16;;;;;;;17.77;4.17;;;11.50;4.20;;;;;;6097774;23;20408;-85
2021/03/12 12:00:44;;;;;;;17.63;3.03;;;11.50;4.40;;;;;;6107424;23;20763;-84
2021/03/12 12:03:10;;;;;;;21.53;3.20;;;11.90;5.90;;;;;;6097805;23;20739;-84
2021/03/12 12:05:37;;;;;;;18.57;3.17;;;12.00;4.20;;;;;;6097801;23;20411;-85
2021/03/12 12:08:03;;;;;;;19.30;4.03;;;11.90;2.40;;;;;;6096454;23;20742;-84
2021/03/12 12:10:30;;;;;;;21.37;3.43;;;11.80;3.40;;;;;;6097241;23;20404;-85
2021/03/12 12:12:56;;;;;;;18.20;3.07;;;11.60;3.50;;;;;;6095060;23;20506;-86
2021/03/12 12:15:26;;;;;;;23.10;3.33;;;11.20;4.70;;;;;;6106760;23;20423;-83
2021/03/12 12:18:16;;;;;;;22.37;3.27;;;11.30;4.60;;;;;;6106832;23;20739;-84
2021/03/12 12:20:43;;;;;;;15.40;2.47;;;11.00;4.50;;;;;;6095151;23;20440;-85
2021/03/12 12:23:10;;;;;;;15.97;3.10;;;10.70;6.10;;;;;;6095493;23;20474;-84
2021/03/12 12:25:36;;;;;;;17.80;2.83;;;10.80;7.90;;;;;;6096814;23;20728;-84
2021/03/12 12:28:06;;;;;;;30.27;6.73;;;11.10;7.10;;;;;;6106924;23;20419;-84
2021/03/12 12:30:32;;;;;;;13.57;2.30;;;11.20;7.50;;;;;;6107030;23;20415;-84
2021/03/12 12:33:02;;;;;;;17.70;2.80;;;11.40;6.30;;;;;;6096864;23;20400;-84
2021/03/12 12:35:32;;;;;;;15.23;2.60;;;11.50;6.40;;;;;;6096625;23;20403;-83
2021/03/12 12:37:59;;;;;;;19.20;4.23;;;11.50;6.80;;;;;;6105400;23;20439;-84
2021/03/12 12:40:25;;;;;;;19.83;3.47;;;11.70;5.30;;;;;;6106441;23;20466;-84
2021/03/12 12:42:52;;;;;;;15.60;3.00;;;11.90;4.10;;;;;;6097327;23;20509;-84
2021/03/12 12:45:19;;;;;;;20.57;3.27;;;12.00;5.20;;;;;;6097503;23;20451;-84
2021/03/12 12:47:46;;;;;;;15.67;3.20;;;11.90;6.40;;;;;;6097459;23;20398;-84
2021/03/12 12:50:13;;;;;;;15.77;3.43;;;11.50;8.10;;;;;;6097065;23;20427;-84
2021/03/12 12:52:40;;;;;;;15.77;4.00;;;11.50;7.70;;;;;;6095607;23;20473;-83
2021/03/12 12:55:08;;;;;;;23.47;3.67;;;11.40;6.70;;;;;;6097027;23;20444;-84
2021/03/12 12:57:48;;;;;;;29.13;3.40;;;11.60;8.40;;;;;;6097469;23;20396;-84
2021/03/12 13:00:16;;;;;;;20.77;3.90;;;11.60;9.00;;;;;;6097566;23;20726;-84
2021/03/12 13:02:42;;;;;;;23.90;4.10;;;11.60;7.50;;;;;;6097035;23;20514;-84
2021/03/12 13:05:14;;;;;;;22.63;4.03;;;11.90;6.40;;;;;;6097026;23;21059;-84
2021/03/12 13:07:41;;;;;;;19.87;3.60;;;12.20;4.10;;;;;;6105005;23;20502;-84
2021/03/12 13:10:12;;;;;;;24.33;3.20;;;12.50;4.50;;;;;;6107279;23;20415;-84
2021/03/12 13:12:38;;;;;;;16.30;3.70;;;12.50;4.70;;;;;;6107042;23;20412;-84
2021/03/12 13:15:08;;;;;;;21.90;3.37;;;12.50;4.00;;;;;;6097111;23;20407;-85